Time;durP1;ratioP1;P1;durP2;ratioP2;P2;SDS_P1;SDS_P2;PMS_P1;PMS_P2;Temp;Humidity;BMP_temperature;BMP_pressure;BME280_temperature;BME280_humidity;BME280_pressure;Samples;Min_cycle;Max_cycle;Signal;HPM_P1;HPM_P2
2023/03/08 00:02:01;;;;;;;24.67;20.60;;;2.10;99.90;;;;;;5035129;28;20038;-59
2023/03/08 00:04:27;;;;;;;29.42;21.83;;;2.10;99.90;;;;;;5033673;28;20045;-55
2023/03/08 00:06:54;;;;;;;27.00;21.42;;;2.10;99.90;;;;;;5033532;28;20049;-60
2023/03/08 00:09:21;;;;;;;29.52;22.40;;;2.10;99.90;;;;;;5033501;28;20055;-60
2023/03/08 00:11:48;;;;;;;28.85;22.25;;;2.10;99.90;;;;;;5034872;28;20088;-56
2023/03/08 00:14:15;;;;;;;29.75;23.50;;;2.10;99.90;;;;;;5034940;28;20048;-60
2023/03/08 00:16:42;;;;;;;30.58;23.58;;;2.10;99.90;;;;;;5034674;28;20053;-59
2023/03/08 00:19:08;;;;;;;31.48;23.75;;;2.10;99.90;;;;;;5034795;28;20042;-59
2023/03/08 00:21:35;;;;;;;32.08;24.25;;;2.20;99.90;;;;;;5034705;28;20091;-60
2023/03/08 00:24:02;;;;;;;30.10;23.80;;;2.20;99.90;;;;;;5034809;28;20034;-60
2023/03/08 00:26:29;;;;;;;32.72;25.33;;;2.20;99.90;;;;;;5034805;28;20041;-61
2023/03/08 00:28:55;;;;;;;32.88;24.98;;;2.20;99.90;;;;;;5034569;28;20052;-60
2023/03/08 00:31:22;;;;;;;32.75;25.73;;;2.30;99.90;;;;;;5034770;28;20103;-58
2023/03/08 00:33:52;;;;;;;35.03;25.58;;;2.20;99.90;;;;;;5034373;28;20479;-58
2023/03/08 00:36:19;;;;;;;34.65;26.27;;;2.20;99.90;;;;;;5033023;28;20399;-59
2023/03/08 00:38:46;;;;;;;34.33;25.77;;;2.20;99.90;;;;;;5034407;28;20042;-60
2023/03/08 00:41:13;;;;;;;35.85;27.02;;;2.20;99.90;;;;;;5033166;28;20084;-60
2023/03/08 00:43:41;;;;;;;32.50;26.00;;;2.10;99.90;;;;;;5034258;28;20128;-58
2023/03/08 00:46:08;;;;;;;33.33;26.25;;;2.20;99.90;;;;;;5032794;28;20041;-60
2023/03/08 00:48:34;;;;;;;34.60;27.08;;;2.20;99.90;;;;;;5032890;28;20053;-60
2023/03/08 00:51:01;;;;;;;35.92;26.55;;;2.20;99.90;;;;;;5034201;28;20045;-59
2023/03/08 00:53:28;;;;;;;33.70;26.52;;;2.20;99.90;;;;;;5032738;28;20136;-59
2023/03/08 00:55:55;;;;;;;36.03;26.75;;;2.20;99.90;;;;;;5033906;28;20045;-60
2023/03/08 00:58:22;;;;;;;32.67;27.02;;;2.20;99.90;;;;;;5034013;28;20060;-55
2023/03/08 01:00:49;;;;;;;32.03;26.02;;;2.20;99.90;;;;;;5034179;28;20045;-58
2023/03/08 01:03:15;;;;;;;34.47;27.80;;;2.20;99.90;;;;;;5033944;28;20095;-59
2023/03/08 01:05:42;;;;;;;35.08;27.35;;;2.20;99.90;;;;;;5033250;28;20088;-60
2023/03/08 01:08:10;;;;;;;33.97;26.80;;;2.20;99.90;;;;;;5032732;28;20053;-60
2023/03/08 01:10:37;;;;;;;37.85;26.95;;;2.20;99.90;;;;;;5033760;28;20099;-58
2023/03/08 01:13:03;;;;;;;37.42;28.13;;;2.10;99.90;;;;;;5033557;28;20438;-57
2023/03/08 01:15:30;;;;;;;33.35;27.05;;;2.10;99.90;;;;;;5032120;28;20408;-59
2023/03/08 01:17:57;;;;;;;33.30;26.75;;;2.10;99.90;;;;;;5032370;28;20037;-59
2023/03/08 01:20:23;;;;;;;35.97;27.85;;;2.10;99.90;;;;;;5032232;28;20099;-59
2023/03/08 01:22:50;;;;;;;37.60;27.90;;;2.10;99.90;;;;;;5027229;28;20041;-60
2023/03/08 01:25:17;;;;;;;32.92;27.00;;;2.10;99.90;;;;;;5025836;28;20091;-62
2023/03/08 01:27:44;;;;;;;37.47;28.42;;;2.20;99.90;;;;;;5025798;28;20046;-60
2023/03/08 01:30:10;;;;;;;34.08;26.30;;;2.20;99.90;;;;;;5033408;28;20099;-59
2023/03/08 01:32:38;;;;;;;35.53;27.67;;;2.20;99.90;;;;;;5033391;28;20057;-57
2023/03/08 01:35:05;;;;;;;37.08;27.85;;;2.20;99.90;;;;;;5031973;28;20041;-56
2023/03/08 01:37:33;;;;;;;37.13;27.42;;;2.20;99.90;;;;;;5032539;28;20045;-59
2023/03/08 01:40:00;;;;;;;34.70;27.48;;;2.20;99.90;;;;;;5032044;28;20045;-59
2023/03/08 01:42:27;;;;;;;34.75;27.40;;;2.20;99.90;;;;;;5032283;28;20092;-59
2023/03/08 01:44:53;;;;;;;36.67;28.40;;;2.30;99.90;;;;;;5031902;28;20041;-58
2023/03/08 01:47:21;;;;;;;31.77;26.50;;;2.20;99.90;;;;;;5031946;28;20044;-59
2023/03/08 01:50:06;;;;;;;32.63;25.90;;;2.20;99.90;;;;;;5032182;28;20041;-58
2023/03/08 01:52:33;;;;;;;35.30;25.45;;;2.20;99.90;;;;;;5031849;28;20128;-60
2023/03/08 01:55:00;;;;;;;30.88;24.75;;;2.20;99.90;;;;;;5031922;28;20049;-58
2023/03/08 01:57:27;;;;;;;30.83;23.45;;;2.20;99.90;;;;;;5031701;28;20042;-58
2023/03/08 01:59:53;;;;;;;31.08;23.77;;;2.20;99.90;;;;;;5031584;28;20065;-58
2023/03/08 02:02:20;;;;;;;27.30;22.20;;;2.30;99.90;;;;;;5032941;28;20112;-59
2023/03/08 02:04:47;;;;;;;27.75;21.60;;;2.30;99.90;;;;;;5032970;28;20034;-60
2023/03/08 02:07:14;;;;;;;29.58;23.02;;;2.20;99.90;;;;;;5033093;28;20052;-58
2023/03/08 02:09:41;;;;;;;29.70;22.77;;;2.20;99.90;;;;;;5033144;28;20033;-59
2023/03/08 02:12:08;;;;;;;29.35;23.52;;;2.20;99.90;;;;;;5031759;28;20049;-59
2023/03/08 02:14:35;;;;;;;26.00;22.38;;;2.30;99.90;;;;;;5031340;28;20050;-55
2023/03/08 02:17:02;;;;;;;28.40;22.15;;;2.30;99.90;;;;;;5031416;28;20054;-58
2023/03/08 02:19:28;;;;;;;28.23;22.55;;;2.30;99.90;;;;;;5034843;28;20044;-57
2023/03/08 02:21:55;;;;;;;29.33;23.08;;;2.30;99.90;;;;;;5035659;28;20361;-59
2023/03/08 02:24:22;;;;;;;30.00;24.38;;;2.30;99.90;;;;;;5035377;28;20485;-57
2023/03/08 02:26:49;;;;;;;29.98;23.88;;;2.30;99.90;;;;;;5036740;28;20492;-58
2023/03/08 02:29:15;;;;;;;30.00;23.80;;;2.30;99.90;;;;;;5035722;28;20099;-57
2023/03/08 02:31:42;;;;;;;31.80;23.95;;;2.30;99.90;;;;;;5035549;28;20042;-58
2023/03/08 02:34:09;;;;;;;28.30;22.48;;;2.30;99.90;;;;;;5036573;28;20113;-59
2023/03/08 02:36:36;;;;;;;29.95;23.38;;;2.30;99.90;;;;;;5036547;28;20041;-60
2023/03/08 02:39:02;;;;;;;28.17;22.48;;;2.40;99.90;;;;;;5034516;28;20396;-57
2023/03/08 02:41:29;;;;;;;30.35;22.60;;;2.30;99.90;;;;;;5036656;28;20038;-60
2023/03/08 02:43:56;;;;;;;30.05;23.77;;;2.30;99.90;;;;;;5028983;28;20492;-60
2023/03/08 02:46:22;;;;;;;30.92;23.90;;;2.30;99.90;;;;;;5028718;28;20046;-58
2023/03/08 02:48:51;;;;;;;31.50;22.83;;;2.40;99.90;;;;;;5029967;28;20045;-60
2023/03/08 02:51:20;;;;;;;28.88;22.17;;;2.40;99.90;;;;;;5019321;28;20041;-61
2023/03/08 02:53:46;;;;;;;30.48;22.30;;;2.40;99.90;;;;;;5036145;28;20395;-60
2023/03/08 02:56:13;;;;;;;29.40;22.15;;;2.40;99.90;;;;;;5035257;28;20383;-61
2023/03/08 02:58:40;;;;;;;27.42;21.15;;;2.40;99.90;;;;;;5036086;28;20120;-59
2023/03/08 03:01:07;;;;;;;27.15;21.65;;;2.40;99.90;;;;;;5028486;28;20115;-58
2023/03/08 03:03:35;;;;;;;27.63;21.70;;;2.40;99.90;;;;;;5028703;28;20052;-60
2023/03/08 03:06:02;;;;;;;29.70;23.05;;;2.40;99.90;;;;;;5028383;28;20042;-58
2023/03/08 03:08:31;;;;;;;27.90;22.52;;;2.40;99.90;;;;;;5028851;28;20128;-58
2023/03/08 03:10:57;;;;;;;27.98;22.00;;;2.40;99.90;;;;;;5035991;28;20439;-59
2023/03/08 03:13:24;;;;;;;30.25;23.88;;;2.30;99.90;;;;;;5028328;28;20132;-57
2023/03/08 03:15:51;;;;;;;29.67;23.13;;;2.40;99.90;;;;;;5029279;28;20057;-58
2023/03/08 03:18:18;;;;;;;28.25;22.58;;;2.40;99.90;;;;;;5024061;28;20458;-59
2023/03/08 03:20:44;;;;;;;28.27;22.52;;;2.30;99.90;;;;;;5034823;28;20049;-57
2023/03/08 03:23:11;;;;;;;30.67;22.92;;;2.30;99.90;;;;;;5033397;28;20096;-59
2023/03/08 03:25:45;;;;;;;30.50;22.48;;;2.30;99.90;;;;;;5033342;28;20072;-56
2023/03/08 03:28:15;;;;;;;32.47;23.90;;;2.20;99.90;;;;;;5033017;28;20132;-55
2023/03/08 03:30:42;;;;;;;31.40;23.13;;;2.20;99.90;;;;;;5032963;28;20057;-58
2023/03/08 03:33:11;;;;;;;33.03;23.98;;;2.10;99.90;;;;;;5033122;28;20045;-61
2023/03/08 03:35:38;;;;;;;33.28;23.75;;;2.10;99.90;;;;;;5034474;28;20143;-59
2023/03/08 03:38:06;;;;;;;31.17;23.05;;;2.10;99.90;;;;;;5032507;28;20045;-61
2023/03/08 03:40:33;;;;;;;31.00;23.63;;;2.10;99.90;;;;;;5033105;28;20042;-59
2023/03/08 03:43:01;;;;;;;35.85;24.80;;;2.10;99.90;;;;;;5033038;28;20518;-60
2023/03/08 03:45:28;;;;;;;32.35;22.77;;;2.10;99.90;;;;;;5033250;28;20156;-59
2023/03/08 03:47:55;;;;;;;31.33;23.40;;;2.10;99.90;;;;;;5033195;28;20042;-57
2023/03/08 03:50:22;;;;;;;30.63;22.20;;;2.10;99.90;;;;;;5033042;28;20542;-61
2023/03/08 03:52:57;;;;;;;31.90;23.00;;;2.10;99.90;;;;;;5034286;28;20042;-61
2023/03/08 03:55:25;;;;;;;33.22;22.48;;;2.10;99.90;;;;;;5032828;28;20136;-61
2023/03/08 03:57:52;;;;;;;30.42;22.38;;;2.00;99.90;;;;;;5033072;28;20047;-61
2023/03/08 04:00:21;;;;;;;32.08;22.52;;;2.00;99.90;;;;;;5032946;28;20049;-60
2023/03/08 04:03:02;;;;;;;30.05;22.17;;;1.90;99.90;;;;;;5033073;28;20055;-57
2023/03/08 04:05:30;;;;;;;25.98;19.33;;;1.90;99.90;;;;;;5032814;28;20045;-58
2023/03/08 04:07:56;;;;;;;29.83;20.33;;;1.80;99.90;;;;;;5034012;28;20438;-60
2023/03/08 04:10:27;;;;;;;27.17;19.45;;;1.80;99.90;;;;;;5032850;28;20092;-61
2023/03/08 04:12:54;;;;;;;23.95;18.13;;;1.80;99.90;;;;;;5032661;28;20401;-61
2023/03/08 04:15:21;;;;;;;24.02;16.88;;;1.80;99.90;;;;;;5032614;28;20447;-59
2023/03/08 04:17:50;;;;;;;26.85;17.38;;;1.80;99.90;;;;;;4991144;28;1211042;-59
2023/03/08 04:20:19;;;;;;;20.80;15.38;;;1.80;99.90;;;;;;5033439;28;20196;-61
2023/03/08 04:22:52;;;;;;;22.45;15.20;;;1.70;99.90;;;;;;5034739;28;20129;-60
2023/03/08 04:25:25;;;;;;;20.17;14.50;;;1.70;99.90;;;;;;5033469;28;20046;-59
2023/03/08 04:27:57;;;;;;;22.63;15.23;;;1.70;99.90;;;;;;5027516;28;20041;-61
2023/03/08 04:30:24;;;;;;;21.95;14.55;;;1.60;99.90;;;;;;5033471;28;20049;-61
2023/03/08 04:32:52;;;;;;;20.80;14.10;;;1.60;99.90;;;;;;5033183;28;20045;-61
2023/03/08 04:35:23;;;;;;;21.63;13.98;;;1.60;99.90;;;;;;5033517;28;20128;-61
2023/03/08 04:37:52;;;;;;;18.25;12.68;;;1.60;99.90;;;;;;5032671;28;20046;-60
2023/03/08 04:40:22;;;;;;;19.70;13.18;;;1.60;99.90;;;;;;5032402;28;20038;-61
2023/03/08 04:42:56;;;;;;;17.20;12.60;;;1.50;99.90;;;;;;5033124;28;20037;-59
2023/03/08 04:45:29;;;;;;;17.25;12.30;;;1.50;99.90;;;;;;5033322;28;20050;-61
2023/03/08 04:47:58;;;;;;;17.77;12.27;;;1.50;99.90;;;;;;5033391;28;20072;-61
2023/03/08 04:50:25;;;;;;;17.30;12.15;;;1.40;99.90;;;;;;5034394;28;20087;-61
2023/03/08 04:52:55;;;;;;;16.95;11.98;;;1.40;99.90;;;;;;5033006;28;20380;-59
2023/03/08 04:55:23;;;;;;;15.85;11.95;;;1.40;99.90;;;;;;5032918;28;20050;-60
2023/03/08 04:57:50;;;;;;;18.98;12.10;;;1.40;99.90;;;;;;5032984;28;20145;-61
2023/03/08 05:00:16;;;;;;;17.38;11.82;;;1.40;99.90;;;;;;5033971;28;20112;-59
2023/03/08 05:02:44;;;;;;;17.20;11.80;;;1.30;99.90;;;;;;5032721;28;20095;-61
2023/03/08 05:05:15;;;;;;;17.40;12.07;;;1.30;99.90;;;;;;5032642;28;20038;-60
2023/03/08 05:07:43;;;;;;;16.65;12.23;;;1.30;99.90;;;;;;5032551;28;20042;-61
2023/03/08 05:10:10;;;;;;;16.45;11.57;;;1.30;99.90;;;;;;5032623;28;20441;-60
2023/03/08 05:12:39;;;;;;;15.43;11.35;;;1.30;99.90;;;;;;5032762;28;20063;-58
2023/03/08 05:15:06;;;;;;;16.38;12.02;;;1.30;99.90;;;;;;5033770;28;20403;-60
2023/03/08 05:17:33;;;;;;;17.40;11.73;;;1.30;99.90;;;;;;5032361;28;20055;-58
2023/03/08 05:20:00;;;;;;;16.23;12.10;;;1.30;99.90;;;;;;5032266;28;20057;-59
2023/03/08 05:22:33;;;;;;;14.13;11.40;;;1.30;99.90;;;;;;5032429;28;20061;-57
2023/03/08 05:25:20;;;;;;;16.30;12.13;;;1.30;99.90;;;;;;5018832;28;20033;-56
2023/03/08 05:27:47;;;;;;;14.82;11.50;;;1.30;99.90;;;;;;5032674;28;20485;-59
2023/03/08 05:30:15;;;;;;;13.55;11.50;;;1.20;99.90;;;;;;5016312;28;20187;-58
2023/03/08 05:32:41;;;;;;;15.48;11.88;;;1.20;99.90;;;;;;5033396;28;20042;-59
2023/03/08 05:35:08;;;;;;;16.58;11.98;;;1.30;99.90;;;;;;5033367;28;20038;-57
2023/03/08 05:37:37;;;;;;;15.25;11.35;;;1.20;99.90;;;;;;5031469;28;20042;-59
2023/03/08 05:40:05;;;;;;;14.55;11.82;;;1.30;99.90;;;;;;5031894;28;20049;-59
2023/03/08 05:42:35;;;;;;;15.25;11.55;;;1.20;99.90;;;;;;5031882;28;20091;-58
2023/03/08 05:45:02;;;;;;;13.60;10.70;;;1.20;99.90;;;;;;5033408;28;20053;-58
2023/03/08 05:47:33;;;;;;;14.07;10.73;;;1.30;99.90;;;;;;5032178;28;20568;-56
2023/03/08 05:50:01;;;;;;;11.75;10.13;;;1.20;99.90;;;;;;5031937;28;20500;-57
2023/03/08 05:52:31;;;;;;;12.50;10.35;;;1.20;99.90;;;;;;5031933;28;20057;-59
2023/03/08 05:55:00;;;;;;;14.02;10.85;;;1.20;99.90;;;;;;5033176;28;20595;-57
2023/03/08 05:57:27;;;;;;;13.75;9.95;;;1.20;99.90;;;;;;5033073;28;20077;-57
2023/03/08 05:59:55;;;;;;;11.82;9.70;;;1.20;99.90;;;;;;5032052;28;20057;-59
2023/03/08 06:02:22;;;;;;;11.40;9.43;;;1.20;99.90;;;;;;5031930;28;20061;-60
2023/03/08 06:04:52;;;;;;;12.23;9.23;;;1.10;99.90;;;;;;5031858;28;20408;-59
2023/03/08 06:07:21;;;;;;;11.55;9.43;;;1.20;99.90;;;;;;5031992;28;20041;-57
2023/03/08 06:09:55;;;;;;;9.63;8.25;;;1.10;99.90;;;;;;5031624;28;20586;-56
2023/03/08 06:12:22;;;;;;;9.13;7.85;;;1.20;99.90;;;;;;5032253;28;20053;-59
2023/03/08 06:14:53;;;;;;;8.23;7.30;;;1.20;99.90;;;;;;5031801;28;20045;-56
2023/03/08 06:17:23;;;;;;;9.10;7.68;;;1.20;99.90;;;;;;5031708;28;20404;-56
2023/03/08 06:19:51;;;;;;;7.78;6.28;;;1.20;99.90;;;;;;5015618;28;20050;-59
2023/03/08 06:22:18;;;;;;;8.20;6.30;;;1.20;99.90;;;;;;5031625;28;20072;-58
2023/03/08 06:24:48;;;;;;;7.50;6.05;;;1.20;99.90;;;;;;5032016;28;20038;-57
2023/03/08 06:27:20;;;;;;;;;;;1.20;99.90;;;;;;5032078;28;20554;-58
2023/03/08 06:29:49;;;;;;;9.07;6.68;;;1.20;99.90;;;;;;5033240;28;19928;-57
2023/03/08 06:32:16;;;;;;;6.80;5.93;;;1.20;99.90;;;;;;5031735;28;20404;-56
2023/03/08 06:34:45;;;;;;;7.07;5.70;;;1.10;99.90;;;;;;5031570;28;20046;-56
2023/03/08 06:37:12;;;;;;;7.65;6.28;;;1.20;99.90;;;;;;5032331;28;20056;-54
2023/03/08 06:39:39;;;;;;;7.30;6.38;;;1.10;99.90;;;;;;5032880;28;20041;-60
2023/03/08 06:42:06;;;;;;;7.38;6.00;;;1.20;99.90;;;;;;5032881;28;20041;-59
2023/03/08 06:44:34;;;;;;;7.20;6.22;;;1.20;99.90;;;;;;5031544;28;20124;-57
2023/03/08 06:47:00;;;;;;;7.45;5.82;;;1.20;99.90;;;;;;5032798;28;20034;-57
2023/03/08 06:49:27;;;;;;;6.53;5.55;;;1.20;99.90;;;;;;5032752;28;20042;-59
2023/03/08 06:51:54;;;;;;;6.63;5.28;;;1.20;99.90;;;;;;5031448;28;20050;-58
2023/03/08 06:54:23;;;;;;;7.07;6.00;;;1.20;99.90;;;;;;5031351;28;20397;-56
2023/03/08 06:56:50;;;;;;;6.47;5.43;;;1.30;99.90;;;;;;5031286;28;20048;-59
2023/03/08 06:59:16;;;;;;;6.38;5.03;;;1.20;99.90;;;;;;5032537;28;20095;-58
2023/03/08 07:01:43;;;;;;;7.38;5.70;;;1.30;99.90;;;;;;5032596;28;20046;-57
2023/03/08 07:04:10;;;;;;;7.35;4.72;;;1.30;99.90;;;;;;5032305;28;20132;-57
2023/03/08 07:06:37;;;;;;;5.82;5.18;;;1.30;99.90;;;;;;5035058;28;20651;-57
2023/03/08 07:09:03;;;;;;;5.65;4.88;;;1.30;99.90;;;;;;5034866;28;20095;-56
2023/03/08 07:11:32;;;;;;;6.78;4.93;;;1.40;99.90;;;;;;5036169;28;20077;-57
2023/03/08 07:13:59;;;;;;;8.00;4.95;;;1.40;99.90;;;;;;5036008;28;20072;-59
2023/03/08 07:16:26;;;;;;;5.78;4.60;;;1.40;99.90;;;;;;5034711;28;20420;-60
2023/03/08 07:18:52;;;;;;;5.35;4.40;;;1.40;99.90;;;;;;5036001;28;20048;-57
2023/03/08 07:21:19;;;;;;;4.70;3.97;;;1.40;99.90;;;;;;5036113;28;20052;-59
2023/03/08 07:23:46;;;;;;;4.93;3.88;;;1.40;99.90;;;;;;5035882;28;20053;-58
2023/03/08 07:26:13;;;;;;;5.00;3.80;;;1.40;99.90;;;;;;5035981;28;20120;-58
2023/03/08 07:28:39;;;;;;;4.65;3.47;;;1.40;99.90;;;;;;5035879;28;20099;-59
2023/03/08 07:31:06;;;;;;;4.57;3.67;;;1.40;99.90;;;;;;5034761;28;20092;-59
2023/03/08 07:33:33;;;;;;;5.35;3.50;;;1.40;99.90;;;;;;5035632;28;20037;-57
2023/03/08 07:36:03;;;;;;;3.90;3.17;;;1.50;99.90;;;;;;5035664;28;20075;-59
2023/03/08 07:38:30;;;;;;;3.70;3.17;;;1.50;99.90;;;;;;5035155;28;20042;-59
2023/03/08 07:40:56;;;;;;;4.18;3.00;;;1.50;99.90;;;;;;5035559;28;20115;-59
2023/03/08 07:43:23;;;;;;;4.32;2.95;;;1.50;99.90;;;;;;5034176;28;20041;-60
2023/03/08 07:45:58;;;;;;;4.30;3.20;;;1.50;99.90;;;;;;5035635;28;20350;-60
2023/03/08 07:48:25;;;;;;;3.88;2.63;;;1.50;99.90;;;;;;5035704;28;20095;-58
2023/03/08 07:50:52;;;;;;;3.95;2.97;;;1.50;99.90;;;;;;5035446;28;20069;-58
2023/03/08 07:53:18;;;;;;;3.38;2.70;;;1.60;99.90;;;;;;5035423;28;20049;-60
2023/03/08 07:55:45;;;;;;;3.50;2.70;;;1.60;99.90;;;;;;5035261;28;20048;-59
2023/03/08 07:58:12;;;;;;;3.70;2.47;;;1.60;99.90;;;;;;5035376;28;20123;-58
2023/03/08 08:00:38;;;;;;;4.65;2.78;;;1.60;99.90;;;;;;5035217;28;20095;-59
2023/03/08 08:03:05;;;;;;;4.82;2.83;;;1.60;99.90;;;;;;5035015;28;20045;-57
2023/03/08 08:05:32;;;;;;;3.40;2.90;;;1.60;99.90;;;;;;5034938;28;20504;-57
2023/03/08 08:07:59;;;;;;;4.47;3.03;;;1.70;99.90;;;;;;5035439;28;20073;-58
2023/03/08 08:10:26;;;;;;;4.88;3.67;;;1.60;99.90;;;;;;5033806;28;20075;-59
2023/03/08 08:12:52;;;;;;;3.70;3.40;;;1.60;99.90;;;;;;5034834;28;20124;-60
2023/03/08 08:15:19;;;;;;;3.45;3.15;;;1.70;99.90;;;;;;5033932;28;20053;-58
2023/03/08 08:17:46;;;;;;;4.20;3.53;;;1.70;99.90;;;;;;5034629;28;20057;-58
2023/03/08 08:20:13;;;;;;;4.13;3.70;;;1.70;99.90;;;;;;5034908;28;20443;-61
2023/03/08 08:22:40;;;;;;;4.55;3.78;;;1.70;99.90;;;;;;5032703;28;20095;-56
2023/03/08 08:25:07;;;;;;;5.93;4.07;;;1.70;99.90;;;;;;5033610;28;20672;-61
2023/03/08 08:27:33;;;;;;;5.60;4.32;;;1.70;99.90;;;;;;5033503;28;20095;-61
2023/03/08 08:30:00;;;;;;;5.35;4.82;;;1.70;99.90;;;;;;5033528;28;20049;-59
2023/03/08 08:32:27;;;;;;;5.57;4.93;;;1.80;99.90;;;;;;5033420;28;20094;-60
2023/03/08 08:34:54;;;;;;;7.28;5.28;;;1.80;99.90;;;;;;5033556;28;20483;-58
2023/03/08 08:37:21;;;;;;;5.90;4.85;;;1.80;99.90;;;;;;5028660;28;20179;-61
2023/03/08 08:39:48;;;;;;;6.47;5.10;;;1.90;99.90;;;;;;5029359;28;20048;-60
2023/03/08 08:42:15;;;;;;;11.88;9.52;;;1.90;99.90;;;;;;5033718;28;20536;-60
2023/03/08 08:44:42;;;;;;;6.50;5.32;;;1.90;99.90;;;;;;5033826;28;20076;-60
2023/03/08 08:47:08;;;;;;;8.88;4.85;;;2.00;99.90;;;;;;5032327;28;20455;-58
2023/03/08 08:49:35;;;;;;;5.00;4.50;;;2.00;99.90;;;;;;5033624;28;20053;-60
2023/03/08 08:52:02;;;;;;;5.70;4.68;;;2.10;99.90;;;;;;5033979;28;20179;-61
2023/03/08 08:54:29;;;;;;;5.50;4.53;;;2.10;99.90;;;;;;5033672;28;20049;-60
2023/03/08 08:56:55;;;;;;;5.35;4.85;;;2.10;99.90;;;;;;5033884;28;20045;-56
2023/03/08 08:59:22;;;;;;;5.18;3.95;;;2.10;99.90;;;;;;5033534;28;20048;-57
2023/03/08 09:01:49;;;;;;;5.72;4.80;;;2.20;99.90;;;;;;5033622;28;20049;-57
2023/03/08 09:04:15;;;;;;;4.55;4.05;;;2.20;99.90;;;;;;5033668;28;20053;-58
2023/03/08 09:06:43;;;;;;;5.78;4.32;;;2.20;99.90;;;;;;5033592;28;20105;-59
2023/03/08 09:09:10;;;;;;;5.32;3.85;;;2.10;99.90;;;;;;5033160;28;20508;-59
2023/03/08 09:11:36;;;;;;;7.35;4.70;;;2.10;99.90;;;;;;5033499;28;20052;-57
2023/03/08 09:14:20;;;;;;;6.50;4.68;;;2.20;99.90;;;;;;5033263;28;20060;-57
2023/03/08 09:16:46;;;;;;;7.63;4.38;;;2.20;99.90;;;;;;5033268;28;20523;-60
2023/03/08 09:19:14;;;;;;;5.90;4.72;;;2.20;99.90;;;;;;5033223;28;20050;-56
2023/03/08 09:21:41;;;;;;;6.18;4.10;;;2.20;99.90;;;;;;5033637;28;20444;-55
2023/03/08 09:24:09;;;;;;;4.13;3.70;;;2.30;99.90;;;;;;5032998;28;20041;-56
2023/03/08 09:26:36;;;;;;;6.47;3.50;;;2.30;99.90;;;;;;5032688;28;20104;-58
2023/03/08 09:29:04;;;;;;;3.72;3.05;;;2.30;99.90;;;;;;5032879;28;20046;-60
2023/03/08 09:31:31;;;;;;;3.70;3.20;;;2.30;99.90;;;;;;5032932;28;20045;-57
2023/03/08 09:33:58;;;;;;;5.47;3.80;;;2.30;99.90;;;;;;5033132;28;20041;-57
2023/03/08 09:36:27;;;;;;;4.68;2.90;;;2.30;99.90;;;;;;5032872;28;20046;-59
2023/03/08 09:38:54;;;;;;;5.05;2.92;;;2.30;99.90;;;;;;5032459;28;20037;-58
2023/03/08 09:41:22;;;;;;;7.15;3.08;;;2.30;99.90;;;;;;5032943;28;20095;-60
2023/03/08 09:43:48;;;;;;;6.20;2.92;;;2.30;99.90;;;;;;5033112;28;20354;-60
2023/03/08 09:46:15;;;;;;;4.50;2.92;;;2.30;99.90;;;;;;5031727;28;20547;-59
2023/03/08 09:48:43;;;;;;;6.10;3.42;;;2.30;99.90;;;;;;5032642;28;20096;-59
2023/03/08 09:51:10;;;;;;;6.13;3.10;;;2.30;99.90;;;;;;5032791;28;20045;-60
2023/03/08 09:53:37;;;;;;;6.55;3.50;;;2.40;99.90;;;;;;5032798;28;20114;-61
2023/03/08 09:56:04;;;;;;;6.10;3.67;;;2.40;99.90;;;;;;5032934;28;20048;-60
2023/03/08 09:58:30;;;;;;;5.72;3.60;;;2.40;99.90;;;;;;5031445;28;20045;-59
2023/03/08 10:00:57;;;;;;;5.07;3.15;;;2.50;99.90;;;;;;5032614;28;20041;-59
2023/03/08 10:03:24;;;;;;;8.00;3.63;;;2.50;99.90;;;;;;5032569;28;20507;-61
2023/03/08 10:05:51;;;;;;;7.75;3.50;;;2.50;99.90;;;;;;5032833;28;20095;-58
2023/03/08 10:08:18;;;;;;;5.65;3.63;;;2.50;99.90;;;;;;5032714;28;20041;-59
2023/03/08 10:10:44;;;;;;;4.38;3.22;;;2.60;99.90;;;;;;5032798;28;20044;-55
2023/03/08 10:13:11;;;;;;;5.32;3.40;;;2.50;99.90;;;;;;5032775;28;20099;-57
2023/03/08 10:15:38;;;;;;;3.88;3.47;;;2.50;99.90;;;;;;5031519;28;20045;-58
2023/03/08 10:18:06;;;;;;;7.63;3.53;;;2.50;99.90;;;;;;5032393;28;20396;-59
2023/03/08 10:20:33;;;;;;;8.57;4.00;;;2.60;99.90;;;;;;5032740;28;20041;-58
2023/03/08 10:22:59;;;;;;;6.18;3.47;;;2.60;99.90;;;;;;5032488;28;20042;-61
2023/03/08 10:25:29;;;;;;;5.47;3.47;;;2.60;99.90;;;;;;5032627;28;20045;-55
2023/03/08 10:27:56;;;;;;;6.15;3.45;;;2.60;99.90;;;;;;5032560;28;20088;-59
2023/03/08 10:30:22;;;;;;;4.35;3.53;;;2.50;99.90;;;;;;5031800;28;20096;-59
2023/03/08 10:32:49;;;;;;;9.35;3.60;;;2.50;99.90;;;;;;5030750;28;20050;-59
2023/03/08 10:35:16;;;;;;;4.53;3.25;;;2.50;99.90;;;;;;5032433;28;20080;-60
2023/03/08 10:37:43;;;;;;;7.88;3.63;;;2.60;99.90;;;;;;5032202;28;20114;-60
2023/03/08 10:40:09;;;;;;;5.95;3.22;;;2.60;99.90;;;;;;5035041;28;20090;-61
2023/03/08 10:42:36;;;;;;;5.53;3.53;;;2.60;99.90;;;;;;5036292;28;20049;-60
2023/03/08 10:45:03;;;;;;;7.38;3.67;;;2.60;99.90;;;;;;5036312;28;20037;-59
2023/03/08 10:47:30;;;;;;;4.45;2.90;;;2.70;99.90;;;;;;5036287;28;20045;-59
2023/03/08 10:49:56;;;;;;;4.50;3.22;;;2.70;99.90;;;;;;5036379;28;20072;-60
2023/03/08 10:52:23;;;;;;;6.32;2.90;;;2.70;99.90;;;;;;5036145;28;20042;-60
2023/03/08 10:54:50;;;;;;;5.72;3.03;;;2.80;99.90;;;;;;5036297;28;20095;-56
2023/03/08 10:57:17;;;;;;;5.25;2.88;;;2.80;99.90;;;;;;5036143;28;20048;-60
2023/03/08 10:59:44;;;;;;;6.03;2.72;;;2.90;99.90;;;;;;5035947;28;20041;-59
2023/03/08 11:02:11;;;;;;;4.90;3.08;;;2.90;99.90;;;;;;5034934;28;20041;-59
2023/03/08 11:04:37;;;;;;;4.20;3.10;;;2.90;99.90;;;;;;5031076;28;20044;-60
2023/03/08 11:07:04;;;;;;;4.80;2.97;;;2.90;99.90;;;;;;5034123;28;20052;-60
2023/03/08 11:09:35;;;;;;;6.95;3.10;;;3.00;99.90;;;;;;5033422;28;20113;-58
2023/03/08 11:12:02;;;;;;;4.38;2.70;;;3.00;99.90;;;;;;5036020;28;20052;-59
2023/03/08 11:14:29;;;;;;;5.03;3.20;;;3.00;99.90;;;;;;5035458;28;20120;-58
2023/03/08 11:16:56;;;;;;;5.32;3.00;;;3.00;99.90;;;;;;5035921;28;20069;-57
2023/03/08 11:19:23;;;;;;;5.05;3.30;;;3.10;99.90;;;;;;5036424;28;20042;-60
2023/03/08 11:21:50;;;;;;;6.80;3.03;;;3.10;99.90;;;;;;5035561;28;20107;-60
2023/03/08 11:24:17;;;;;;;9.50;5.18;;;3.10;99.90;;;;;;5035987;28;20069;-60
2023/03/08 11:26:44;;;;;;;5.65;3.60;;;3.10;99.90;;;;;;5035416;28;20029;-59
2023/03/08 11:29:11;;;;;;;5.32;3.15;;;3.10;99.90;;;;;;5035799;28;20042;-59
2023/03/08 11:31:38;;;;;;;5.97;3.10;;;3.10;99.90;;;;;;5035410;28;20068;-59
2023/03/08 11:34:05;;;;;;;5.10;3.47;;;3.10;99.90;;;;;;5035641;28;20120;-58
2023/03/08 11:36:32;;;;;;;6.63;3.08;;;3.20;99.90;;;;;;5035585;28;20049;-59
2023/03/08 11:38:58;;;;;;;6.35;3.22;;;3.20;99.90;;;;;;5035568;28;20929;-60
2023/03/08 11:41:25;;;;;;;8.55;3.33;;;3.20;99.90;;;;;;5035655;28;20041;-58
2023/03/08 11:43:52;;;;;;;4.80;3.08;;;3.20;99.90;;;;;;5035066;28;20065;-57
2023/03/08 11:46:19;;;;;;;5.45;3.10;;;3.20;99.90;;;;;;5035629;28;20095;-58
2023/03/08 11:48:46;;;;;;;6.65;3.20;;;3.20;99.90;;;;;;5035584;28;20055;-57
2023/03/08 11:51:13;;;;;;;8.05;3.38;;;3.20;99.90;;;;;;5035318;28;20176;-59
2023/03/08 11:53:39;;;;;;;7.65;3.25;;;3.20;99.90;;;;;;5034295;28;20077;-60
2023/03/08 11:56:09;;;;;;;4.63;2.72;;;3.20;99.90;;;;;;5035438;28;20385;-56
2023/03/08 11:58:36;;;;;;;7.65;3.90;;;3.20;99.90;;;;;;5034869;28;20088;-59
2023/03/08 12:01:02;;;;;;;5.65;3.10;;;3.20;99.90;;;;;;5035358;28;20044;-56
2023/03/08 12:03:29;;;;;;;7.28;2.95;;;3.20;99.90;;;;;;5035279;28;20473;-58
2023/03/08 12:05:56;;;;;;;5.28;3.00;;;3.30;99.90;;;;;;5034561;28;20065;-57
2023/03/08 12:08:23;;;;;;;4.20;2.72;;;3.30;99.90;;;;;;5035173;28;20041;-56
2023/03/08 12:10:50;;;;;;;6.15;3.00;;;3.30;99.90;;;;;;5033771;28;20073;-58
2023/03/08 12:13:17;;;;;;;6.35;3.30;;;3.30;99.90;;;;;;5034905;28;20092;-57
2023/03/08 12:15:44;;;;;;;5.18;2.97;;;3.30;99.90;;;;;;5034732;28;20108;-57
2023/03/08 12:18:10;;;;;;;5.55;3.25;;;3.20;99.90;;;;;;5044252;28;20053;-57
2023/03/08 12:20:37;;;;;;;7.05;3.15;;;3.20;99.90;;;;;;5034994;28;20033;-57
2023/03/08 12:23:04;;;;;;;7.18;3.30;;;3.20;99.90;;;;;;5034133;28;20045;-57
2023/03/08 12:25:31;;;;;;;4.82;3.17;;;3.20;99.90;;;;;;5035027;28;20046;-56
2023/03/08 12:27:58;;;;;;;5.95;2.90;;;3.10;99.90;;;;;;5035115;28;20041;-54
2023/03/08 12:30:24;;;;;;;5.30;3.15;;;3.10;99.90;;;;;;5034951;28;20099;-55
2023/03/08 12:32:53;;;;;;;5.05;3.40;;;3.20;99.90;;;;;;5034792;28;20037;-58
2023/03/08 12:35:20;;;;;;;5.53;2.90;;;3.20;99.90;;;;;;5028529;28;20052;-56
2023/03/08 12:37:47;;;;;;;4.50;3.05;;;3.20;99.90;;;;;;5033889;28;20041;-56
2023/03/08 12:40:13;;;;;;;5.15;3.05;;;3.20;99.90;;;;;;5028440;28;20041;-57
2023/03/08 12:42:40;;;;;;;7.10;3.17;;;3.20;99.90;;;;;;5027819;28;20116;-57
2023/03/08 12:45:07;;;;;;;7.20;3.00;;;3.20;99.90;;;;;;5033128;28;20049;-57
2023/03/08 12:47:34;;;;;;;9.60;5.30;;;3.20;99.90;;;;;;5034132;28;20095;-57
2023/03/08 12:50:01;;;;;;;3.75;2.92;;;3.30;99.90;;;;;;5033345;28;20034;-57